sensor_id;sensor_type;location;lat;lon;timestamp;pressure;altitude;pressure_sealevel;temperature;humidity
80585;BME280;70137;56.482;9.154;2024-03-17T00:00:21;102145.97;;;1.27;88.82
80585;BME280;70137;56.482;9.154;2024-03-17T00:02:46;102143.25;;;1.30;88.87
80585;BME280;70137;56.482;9.154;2024-03-17T00:05:12;102142.22;;;1.34;89.03
80585;BME280;70137;56.482;9.154;2024-03-17T00:07:38;102144.66;;;1.37;88.73
80585;BME280;70137;56.482;9.154;2024-03-17T00:10:04;102154.78;;;1.39;88.96
80585;BME280;70137;56.482;9.154;2024-03-17T00:12:29;102159.06;;;1.38;88.58
80585;BME280;70137;56.482;9.154;2024-03-17T00:14:55;102153.06;;;1.39;88.72
80585;BME280;70137;56.482;9.154;2024-03-17T00:17:20;102163.38;;;1.38;88.70
80585;BME280;70137;56.482;9.154;2024-03-17T00:19:46;102164.25;;;1.37;88.05
80585;BME280;70137;56.482;9.154;2024-03-17T00:22:11;102157.53;;;1.34;87.48
80585;BME280;70137;56.482;9.154;2024-03-17T00:24:39;102160.16;;;1.33;87.30
80585;BME280;70137;56.482;9.154;2024-03-17T00:27:05;102169.56;;;1.32;87.85
80585;BME280;70137;56.482;9.154;2024-03-17T00:29:30;102169.72;;;1.29;86.92
80585;BME280;70137;56.482;9.154;2024-03-17T00:31:56;102178.34;;;1.27;86.95
80585;BME280;70137;56.482;9.154;2024-03-17T00:34:22;102174.25;;;1.23;87.02
80585;BME280;70137;56.482;9.154;2024-03-17T00:36:47;102179.44;;;1.21;87.13
80585;BME280;70137;56.482;9.154;2024-03-17T00:39:13;102188.75;;;1.22;86.90
80585;BME280;70137;56.482;9.154;2024-03-17T00:41:39;102183.63;;;1.22;86.78
80585;BME280;70137;56.482;9.154;2024-03-17T00:44:05;102186.13;;;1.24;86.98
80585;BME280;70137;56.482;9.154;2024-03-17T00:46:31;102193.72;;;1.25;87.08
80585;BME280;70137;56.482;9.154;2024-03-17T00:48:58;102196.16;;;1.28;87.26
80585;BME280;70137;56.482;9.154;2024-03-17T00:51:25;102202.84;;;1.31;87.41
80585;BME280;70137;56.482;9.154;2024-03-17T00:53:51;102196.09;;;1.30;87.23
80585;BME280;70137;56.482;9.154;2024-03-17T00:56:16;102210.66;;;1.28;87.71
80585;BME280;70137;56.482;9.154;2024-03-17T00:58:41;102210.72;;;1.26;87.73
80585;BME280;70137;56.482;9.154;2024-03-17T01:01:07;102211.66;;;1.24;87.11
80585;BME280;70137;56.482;9.154;2024-03-17T01:03:33;102218.66;;;1.20;87.08
80585;BME280;70137;56.482;9.154;2024-03-17T01:05:58;102224.66;;;1.19;87.40
80585;BME280;70137;56.482;9.154;2024-03-17T01:08:24;102229.91;;;1.16;87.35
80585;BME280;70137;56.482;9.154;2024-03-17T01:10:49;102223.25;;;1.12;87.57
80585;BME280;70137;56.482;9.154;2024-03-17T01:13:15;102220.91;;;1.07;87.08
80585;BME280;70137;56.482;9.154;2024-03-17T01:15:41;102228.00;;;1.01;86.93
80585;BME280;70137;56.482;9.154;2024-03-17T01:18:07;102223.06;;;0.96;87.05
80585;BME280;70137;56.482;9.154;2024-03-17T01:20:34;102216.38;;;0.94;86.98
80585;BME280;70137;56.482;9.154;2024-03-17T01:23:01;102228.44;;;0.90;87.60
80585;BME280;70137;56.482;9.154;2024-03-17T01:25:26;102228.59;;;0.87;87.33
80585;BME280;70137;56.482;9.154;2024-03-17T01:27:53;102227.88;;;0.83;87.34
80585;BME280;70137;56.482;9.154;2024-03-17T01:30:18;102228.06;;;0.79;87.42
80585;BME280;70137;56.482;9.154;2024-03-17T01:32:46;102228.25;;;0.74;87.16
80585;BME280;70137;56.482;9.154;2024-03-17T01:35:12;102230.94;;;0.71;87.23
80585;BME280;70137;56.482;9.154;2024-03-17T01:37:38;102238.72;;;0.68;87.34
80585;BME280;70137;56.482;9.154;2024-03-17T01:40:04;102240.56;;;0.65;87.25
80585;BME280;70137;56.482;9.154;2024-03-17T01:42:40;102252.47;;;0.64;87.63
80585;BME280;70137;56.482;9.154;2024-03-17T01:45:31;102255.16;;;0.61;87.63
80585;BME280;70137;56.482;9.154;2024-03-17T01:48:00;102262.81;;;0.61;87.45
80585;BME280;70137;56.482;9.154;2024-03-17T01:50:29;102259.38;;;0.62;88.00
80585;BME280;70137;56.482;9.154;2024-03-17T01:52:58;102264.34;;;0.65;87.98
80585;BME280;70137;56.482;9.154;2024-03-17T01:55:26;102266.84;;;0.67;88.54
80585;BME280;70137;56.482;9.154;2024-03-17T01:57:52;102255.69;;;0.69;88.49
80585;BME280;70137;56.482;9.154;2024-03-17T02:00:18;102264.13;;;0.71;88.51
80585;BME280;70137;56.482;9.154;2024-03-17T02:02:43;102269.34;;;0.68;88.48
80585;BME280;70137;56.482;9.154;2024-03-17T02:05:09;102271.09;;;0.66;88.90
80585;BME280;70137;56.482;9.154;2024-03-17T02:07:35;102275.44;;;0.64;88.72
80585;BME280;70137;56.482;9.154;2024-03-17T02:10:01;102274.69;;;0.62;88.69
80585;BME280;70137;56.482;9.154;2024-03-17T02:12:29;102266.38;;;0.57;89.01
80585;BME280;70137;56.482;9.154;2024-03-17T02:14:56;102275.88;;;0.53;88.75
80585;BME280;70137;56.482;9.154;2024-03-17T02:17:22;102275.19;;;0.50;88.82
80585;BME280;70137;56.482;9.154;2024-03-17T02:19:47;102277.06;;;0.45;88.99
80585;BME280;70137;56.482;9.154;2024-03-17T02:22:14;102278.84;;;0.43;89.15
80585;BME280;70137;56.482;9.154;2024-03-17T02:24:42;102277.34;;;0.39;89.27
80585;BME280;70137;56.482;9.154;2024-03-17T02:27:07;102285.28;;;0.31;88.77
80585;BME280;70137;56.482;9.154;2024-03-17T02:29:32;102295.63;;;0.26;89.05
80585;BME280;70137;56.482;9.154;2024-03-17T02:31:58;102301.81;;;0.21;89.25
80585;BME280;70137;56.482;9.154;2024-03-17T02:34:23;102300.19;;;0.18;89.70
80585;BME280;70137;56.482;9.154;2024-03-17T02:36:48;102308.72;;;0.17;89.19
80585;BME280;70137;56.482;9.154;2024-03-17T02:39:14;102312.19;;;0.16;89.80
80585;BME280;70137;56.482;9.154;2024-03-17T02:41:58;102308.72;;;0.17;89.86
80585;BME280;70137;56.482;9.154;2024-03-17T02:44:24;102302.81;;;0.17;89.80
80585;BME280;70137;56.482;9.154;2024-03-17T02:46:49;102313.00;;;0.17;89.91
80585;BME280;70137;56.482;9.154;2024-03-17T02:49:14;102314.78;;;0.15;90.08
80585;BME280;70137;56.482;9.154;2024-03-17T02:51:43;102314.09;;;0.11;89.97
80585;BME280;70137;56.482;9.154;2024-03-17T02:54:09;102319.28;;;0.08;90.33
80585;BME280;70137;56.482;9.154;2024-03-17T02:56:34;102310.16;;;0.03;89.77
80585;BME280;70137;56.482;9.154;2024-03-17T02:58:59;102309.41;;;-0.01;90.08
80585;BME280;70137;56.482;9.154;2024-03-17T03:01:25;102307.88;;;-0.05;89.79
80585;BME280;70137;56.482;9.154;2024-03-17T03:03:50;102311.31;;;-0.06;90.06
80585;BME280;70137;56.482;9.154;2024-03-17T03:06:16;102305.47;;;-0.10;89.63
80585;BME280;70137;56.482;9.154;2024-03-17T03:08:45;102303.00;;;-0.11;90.03
80585;BME280;70137;56.482;9.154;2024-03-17T03:11:14;102300.50;;;-0.13;90.31
80585;BME280;70137;56.482;9.154;2024-03-17T03:13:40;102310.75;;;-0.14;89.92
80585;BME280;70137;56.482;9.154;2024-03-17T03:16:11;102304.97;;;-0.18;90.33
80585;BME280;70137;56.482;9.154;2024-03-17T03:18:38;102308.44;;;-0.20;89.43
80585;BME280;70137;56.482;9.154;2024-03-17T03:21:04;102311.03;;;-0.22;89.67
80585;BME280;70137;56.482;9.154;2024-03-17T03:23:30;102306.78;;;-0.21;90.41
80585;BME280;70137;56.482;9.154;2024-03-17T03:26:00;102315.19;;;-0.19;90.10
80585;BME280;70137;56.482;9.154;2024-03-17T03:28:30;102317.72;;;-0.19;90.25
80585;BME280;70137;56.482;9.154;2024-03-17T03:30:55;102317.03;;;-0.23;90.45
80585;BME280;70137;56.482;9.154;2024-03-17T03:33:21;102321.34;;;-0.25;89.46
80585;BME280;70137;56.482;9.154;2024-03-17T03:35:47;102326.50;;;-0.26;89.42
80585;BME280;70137;56.482;9.154;2024-03-17T03:38:14;102330.03;;;-0.31;89.48
80585;BME280;70137;56.482;9.154;2024-03-17T03:40:40;102342.84;;;-0.32;89.19
80585;BME280;70137;56.482;9.154;2024-03-17T03:43:07;102342.19;;;-0.37;88.94
80585;BME280;70137;56.482;9.154;2024-03-17T03:45:33;102344.09;;;-0.44;88.28
80585;BME280;70137;56.482;9.154;2024-03-17T03:47:59;102351.03;;;-0.49;88.99
80585;BME280;70137;56.482;9.154;2024-03-17T03:50:24;102343.63;;;-0.55;88.66
80585;BME280;70137;56.482;9.154;2024-03-17T03:52:49;102346.38;;;-0.61;87.83
80585;BME280;70137;56.482;9.154;2024-03-17T03:55:16;102349.97;;;-0.67;87.69
80585;BME280;70137;56.482;9.154;2024-03-17T03:57:42;102353.50;;;-0.71;88.22
80585;BME280;70137;56.482;9.154;2024-03-17T04:00:08;102353.56;;;-0.72;88.84
80585;BME280;70137;56.482;9.154;2024-03-17T04:02:41;102361.31;;;-0.75;88.97
80585;BME280;70137;56.482;9.154;2024-03-17T04:05:06;102358.88;;;-0.80;88.31
80585;BME280;70137;56.482;9.154;2024-03-17T04:07:32;102370.84;;;-0.82;88.74
80585;BME280;70137;56.482;9.154;2024-03-17T04:09:59;102368.34;;;-0.83;89.25
80585;BME280;70137;56.482;9.154;2024-03-17T04:12:25;102367.59;;;-0.87;89.12
80585;BME280;70137;56.482;9.154;2024-03-17T04:14:50;102370.31;;;-0.92;88.64
80585;BME280;70137;56.482;9.154;2024-03-17T04:17:22;102378.84;;;-0.93;88.81
80585;BME280;70137;56.482;9.154;2024-03-17T04:19:48;102372.03;;;-0.92;89.58
80585;BME280;70137;56.482;9.154;2024-03-17T04:22:15;102372.91;;;-0.93;89.39
80585;BME280;70137;56.482;9.154;2024-03-17T04:24:44;102378.06;;;-0.95;89.92
80585;BME280;70137;56.482;9.154;2024-03-17T04:27:10;102378.13;;;-0.98;89.86
80585;BME280;70137;56.482;9.154;2024-03-17T04:29:37;102384.09;;;-0.99;89.88
80585;BME280;70137;56.482;9.154;2024-03-17T04:32:02;102385.88;;;-1.01;89.20
80585;BME280;70137;56.482;9.154;2024-03-17T04:34:30;102394.41;;;-1.02;89.50
80585;BME280;70137;56.482;9.154;2024-03-17T04:36:56;102396.94;;;-1.02;89.50
80585;BME280;70137;56.482;9.154;2024-03-17T04:39:22;102397.06;;;-1.06;90.01
80585;BME280;70137;56.482;9.154;2024-03-17T04:41:48;102401.44;;;-1.10;89.70
80585;BME280;70137;56.482;9.154;2024-03-17T04:44:13;102406.63;;;-1.13;89.87
80585;BME280;70137;56.482;9.154;2024-03-17T04:46:39;102406.81;;;-1.19;89.34
80585;BME280;70137;56.482;9.154;2024-03-17T04:49:05;102409.44;;;-1.22;89.15
80585;BME280;70137;56.482;9.154;2024-03-17T04:51:30;102412.09;;;-1.25;89.44
80585;BME280;70137;56.482;9.154;2024-03-17T04:53:58;102414.66;;;-1.27;89.15
80585;BME280;70137;56.482;9.154;2024-03-17T04:56:24;102413.94;;;-1.30;89.33
80585;BME280;70137;56.482;9.154;2024-03-17T04:58:49;102414.03;;;-1.33;89.30
80585;BME280;70137;56.482;9.154;2024-03-17T05:01:14;102421.72;;;-1.35;89.91
80585;BME280;70137;56.482;9.154;2024-03-17T05:03:40;102419.19;;;-1.36;90.02
80585;BME280;70137;56.482;9.154;2024-03-17T05:06:05;102429.38;;;-1.36;89.54
80585;BME280;70137;56.482;9.154;2024-03-17T05:08:33;102429.56;;;-1.42;89.62
80585;BME280;70137;56.482;9.154;2024-03-17T05:11:03;102426.25;;;-1.46;90.27
80585;BME280;70137;56.482;9.154;2024-03-17T05:13:30;102425.47;;;-1.48;90.43
80585;BME280;70137;56.482;9.154;2024-03-17T05:15:56;102422.88;;;-1.47;90.54
80585;BME280;70137;56.482;9.154;2024-03-17T05:18:22;102433.09;;;-1.48;90.52
80585;BME280;70137;56.482;9.154;2024-03-17T05:20:56;102432.31;;;-1.50;90.79
80585;BME280;70137;56.482;9.154;2024-03-17T05:23:22;102439.16;;;-1.52;91.00
80585;BME280;70137;56.482;9.154;2024-03-17T05:25:54;102440.94;;;-1.56;90.64
80585;BME280;70137;56.482;9.154;2024-03-17T05:28:20;102440.13;;;-1.56;90.79
80585;BME280;70137;56.482;9.154;2024-03-17T05:30:45;102447.84;;;-1.59;90.15
80585;BME280;70137;56.482;9.154;2024-03-17T05:33:10;102453.84;;;-1.62;90.28
80585;BME280;70137;56.482;9.154;2024-03-17T05:35:36;102452.19;;;-1.63;90.67
80585;BME280;70137;56.482;9.154;2024-03-17T05:38:01;102462.44;;;-1.66;90.30
80585;BME280;70137;56.482;9.154;2024-03-17T05:40:27;102455.69;;;-1.67;90.21
80585;BME280;70137;56.482;9.154;2024-03-17T05:42:52;102459.94;;;-1.67;89.79
80585;BME280;70137;56.482;9.154;2024-03-17T05:45:18;102460.75;;;-1.67;90.22
80585;BME280;70137;56.482;9.154;2024-03-17T05:47:43;102464.97;;;-1.66;89.88
80585;BME280;70137;56.482;9.154;2024-03-17T05:50:09;102467.44;;;-1.63;90.02
80585;BME280;70137;56.482;9.154;2024-03-17T05:52:34;102482.63;;;-1.60;90.20
80585;BME280;70137;56.482;9.154;2024-03-17T05:55:00;102479.09;;;-1.56;90.04
80585;BME280;70137;56.482;9.154;2024-03-17T05:57:25;102474.78;;;-1.52;90.46
80585;BME280;70137;56.482;9.154;2024-03-17T05:59:51;102480.59;;;-1.49;90.45
80585;BME280;70137;56.482;9.154;2024-03-17T06:02:16;102481.38;;;-1.47;90.66
80585;BME280;70137;56.482;9.154;2024-03-17T06:04:44;102480.50;;;-1.46;90.50
80585;BME280;70137;56.482;9.154;2024-03-17T06:07:09;102472.88;;;-1.46;90.44
80585;BME280;70137;56.482;9.154;2024-03-17T06:09:35;102478.06;;;-1.49;90.75
80585;BME280;70137;56.482;9.154;2024-03-17T06:12:00;102481.44;;;-1.48;90.70
80585;BME280;70137;56.482;9.154;2024-03-17T06:14:25;102487.28;;;-1.45;91.22
80585;BME280;70137;56.482;9.154;2024-03-17T06:16:51;102480.34;;;-1.39;91.55
80585;BME280;70137;56.482;9.154;2024-03-17T06:19:16;102486.88;;;-1.31;91.72
80585;BME280;70137;56.482;9.154;2024-03-17T06:21:42;102490.00;;;-1.21;92.42
80585;BME280;70137;56.482;9.154;2024-03-17T06:24:07;102492.31;;;-1.13;92.35
80585;BME280;70137;56.482;9.154;2024-03-17T06:26:33;102491.22;;;-1.05;92.59
80585;BME280;70137;56.482;9.154;2024-03-17T06:29:02;102490.94;;;-0.96;92.30
80585;BME280;70137;56.482;9.154;2024-03-17T06:31:28;102495.84;;;-0.90;92.48
80585;BME280;70137;56.482;9.154;2024-03-17T06:33:53;102499.00;;;-0.81;92.38
80585;BME280;70137;56.482;9.154;2024-03-17T06:36:19;102501.25;;;-0.72;92.60
80585;BME280;70137;56.482;9.154;2024-03-17T06:38:44;102504.34;;;-0.63;92.40
80585;BME280;70137;56.482;9.154;2024-03-17T06:41:10;102504.06;;;-0.53;93.28
80585;BME280;70137;56.482;9.154;2024-03-17T06:43:35;102508.09;;;-0.46;92.24
80585;BME280;70137;56.482;9.154;2024-03-17T06:46:01;102506.09;;;-0.37;92.76
80585;BME280;70137;56.482;9.154;2024-03-17T06:48:28;102510.00;;;-0.26;93.06
80585;BME280;70137;56.482;9.154;2024-03-17T06:50:54;102511.19;;;-0.12;93.26
80585;BME280;70137;56.482;9.154;2024-03-17T06:53:21;102518.34;;;0.04;93.62
80585;BME280;70137;56.482;9.154;2024-03-17T06:55:57;102522.25;;;0.14;93.48
80585;BME280;70137;56.482;9.154;2024-03-17T06:58:24;102513.19;;;0.30;93.20
80585;BME280;70137;56.482;9.154;2024-03-17T07:01:01;102510.84;;;0.47;93.71
80585;BME280;70137;56.482;9.154;2024-03-17T07:03:28;102507.69;;;0.64;93.23
80585;BME280;70137;56.482;9.154;2024-03-17T07:06:01;102507.16;;;0.79;93.62
80585;BME280;70137;56.482;9.154;2024-03-17T07:08:30;102510.91;;;0.93;93.41
80585;BME280;70137;56.482;9.154;2024-03-17T07:11:03;102504.69;;;1.00;93.09
80585;BME280;70137;56.482;9.154;2024-03-17T07:13:31;102515.53;;;1.05;92.58
80585;BME280;70137;56.482;9.154;2024-03-17T07:15:58;102505.88;;;1.13;92.96
80585;BME280;70137;56.482;9.154;2024-03-17T07:18:30;102505.50;;;1.22;93.02
80585;BME280;70137;56.482;9.154;2024-03-17T07:20:59;102512.75;;;1.33;92.65
80585;BME280;70137;56.482;9.154;2024-03-17T07:23:25;102508.19;;;1.41;92.59
80585;BME280;70137;56.482;9.154;2024-03-17T07:25:52;102512.88;;;1.52;92.36
80585;BME280;70137;56.482;9.154;2024-03-17T07:28:18;102515.94;;;1.60;92.26
80585;BME280;70137;56.482;9.154;2024-03-17T07:31:01;102511.88;;;1.76;93.17
80585;BME280;70137;56.482;9.154;2024-03-17T07:33:27;102516.25;;;1.94;93.00
80585;BME280;70137;56.482;9.154;2024-03-17T07:35:54;102520.97;;;2.04;92.75
80585;BME280;70137;56.482;9.154;2024-03-17T07:38:22;102529.97;;;2.12;92.56
80585;BME280;70137;56.482;9.154;2024-03-17T07:41:04;102530.69;;;2.16;91.95
80585;BME280;70137;56.482;9.154;2024-03-17T07:43:37;102532.78;;;2.26;91.78
80585;BME280;70137;56.482;9.154;2024-03-17T07:48:30;102535.06;;;2.53;91.44
80585;BME280;70137;56.482;9.154;2024-03-17T07:51:01;102539.78;;;2.62;89.73
80585;BME280;70137;56.482;9.154;2024-03-17T07:53:32;102533.81;;;2.62;88.11
80585;BME280;70137;56.482;9.154;2024-03-17T07:58:24;102536.75;;;2.73;88.80
80585;BME280;70137;56.482;9.154;2024-03-17T08:00:51;102542.63;;;2.75;86.98
80585;BME280;70137;56.482;9.154;2024-03-17T08:03:16;102544.84;;;2.82;87.69
80585;BME280;70137;56.482;9.154;2024-03-17T08:05:42;102553.03;;;2.91;86.58
80585;BME280;70137;56.482;9.154;2024-03-17T08:08:07;102540.13;;;2.92;85.68
80585;BME280;70137;56.482;9.154;2024-03-17T08:10:35;102543.94;;;3.02;85.49
80585;BME280;70137;56.482;9.154;2024-03-17T08:13:02;102541.88;;;3.10;83.66
80585;BME280;70137;56.482;9.154;2024-03-17T08:15:28;102559.22;;;3.23;83.95
80585;BME280;70137;56.482;9.154;2024-03-17T08:17:55;102562.13;;;3.34;83.70
80585;BME280;70137;56.482;9.154;2024-03-17T08:20:20;102564.81;;;3.50;83.28
80585;BME280;70137;56.482;9.154;2024-03-17T08:22:45;102562.63;;;3.59;81.20
80585;BME280;70137;56.482;9.154;2024-03-17T08:25:11;102558.41;;;3.58;81.40
80585;BME280;70137;56.482;9.154;2024-03-17T08:27:36;102556.75;;;3.57;79.19
80585;BME280;70137;56.482;9.154;2024-03-17T08:30:02;102554.47;;;3.51;78.68
80585;BME280;70137;56.482;9.154;2024-03-17T08:32:28;102551.06;;;3.51;78.66
80585;BME280;70137;56.482;9.154;2024-03-17T08:34:54;102546.50;;;3.57;78.69
80585;BME280;70137;56.482;9.154;2024-03-17T08:37:20;102549.50;;;3.65;78.46
80585;BME280;70137;56.482;9.154;2024-03-17T08:39:47;102545.56;;;3.76;77.50
80585;BME280;70137;56.482;9.154;2024-03-17T08:42:12;102552.25;;;3.80;77.31
80585;BME280;70137;56.482;9.154;2024-03-17T08:44:37;102542.50;;;3.86;76.12
80585;BME280;70137;56.482;9.154;2024-03-17T08:47:03;102543.72;;;3.96;76.19
80585;BME280;70137;56.482;9.154;2024-03-17T08:49:29;102542.94;;;4.12;76.92
80585;BME280;70137;56.482;9.154;2024-03-17T08:51:54;102538.25;;;4.20;75.96
80585;BME280;70137;56.482;9.154;2024-03-17T08:54:19;102540.28;;;4.30;76.35
80585;BME280;70137;56.482;9.154;2024-03-17T08:56:45;102546.78;;;4.20;75.18
80585;BME280;70137;56.482;9.154;2024-03-17T08:59:10;102551.91;;;4.20;74.99
80585;BME280;70137;56.482;9.154;2024-03-17T09:01:37;102553.19;;;4.29;73.04
80585;BME280;70137;56.482;9.154;2024-03-17T09:04:03;102545.25;;;4.34;73.29
80585;BME280;70137;56.482;9.154;2024-03-17T09:06:28;102542.97;;;4.45;73.65
80585;BME280;70137;56.482;9.154;2024-03-17T09:08:55;102540.69;;;4.56;72.60
80585;BME280;70137;56.482;9.154;2024-03-17T09:11:20;102541.84;;;4.66;72.42
80585;BME280;70137;56.482;9.154;2024-03-17T09:13:50;102535.63;;;4.70;72.22
80585;BME280;70137;56.482;9.154;2024-03-17T09:16:16;102534.09;;;4.83;73.14
80585;BME280;70137;56.482;9.154;2024-03-17T09:18:43;102537.47;;;4.84;71.89
80585;BME280;70137;56.482;9.154;2024-03-17T09:21:09;102524.56;;;4.85;71.53
80585;BME280;70137;56.482;9.154;2024-03-17T09:23:35;102522.63;;;5.05;72.27
80585;BME280;70137;56.482;9.154;2024-03-17T09:26:06;102528.09;;;4.99;70.49
80585;BME280;70137;56.482;9.154;2024-03-17T09:28:34;102530.50;;;5.02;72.05
80585;BME280;70137;56.482;9.154;2024-03-17T09:31:00;102538.47;;;5.13;73.13
80585;BME280;70137;56.482;9.154;2024-03-17T09:33:29;102536.66;;;5.15;69.83
80585;BME280;70137;56.482;9.154;2024-03-17T09:36:05;102547.94;;;5.12;70.96
80585;BME280;70137;56.482;9.154;2024-03-17T09:38:36;102548.09;;;5.25;71.32
80585;BME280;70137;56.482;9.154;2024-03-17T09:41:02;102543.69;;;5.27;69.99
80585;BME280;70137;56.482;9.154;2024-03-17T09:43:29;102544.69;;;5.25;69.36
80585;BME280;70137;56.482;9.154;2024-03-17T09:45:54;102533.56;;;5.24;69.84
80585;BME280;70137;56.482;9.154;2024-03-17T09:48:23;102539.63;;;5.23;67.89
80585;BME280;70137;56.482;9.154;2024-03-17T09:53:16;102545.09;;;5.17;69.21
80585;BME280;70137;56.482;9.154;2024-03-17T09:55:43;102546.56;;;5.37;72.26
80585;BME280;70137;56.482;9.154;2024-03-17T09:58:15;102541.63;;;5.64;70.59
80585;BME280;70137;56.482;9.154;2024-03-17T10:00:42;102542.03;;;5.72;68.25
80585;BME280;70137;56.482;9.154;2024-03-17T10:03:07;102551.22;;;5.76;67.21
80585;BME280;70137;56.482;9.154;2024-03-17T10:05:33;102549.47;;;5.77;67.05
80585;BME280;70137;56.482;9.154;2024-03-17T10:07:58;102563.56;;;5.85;67.98
80585;BME280;70137;56.482;9.154;2024-03-17T10:10:24;102550.38;;;5.91;65.97
80585;BME280;70137;56.482;9.154;2024-03-17T10:12:50;102547.72;;;6.07;70.34
80585;BME280;70137;56.482;9.154;2024-03-17T10:15:19;102561.50;;;6.50;68.24
80585;BME280;70137;56.482;9.154;2024-03-17T10:17:49;102555.78;;;6.59;64.45
80585;BME280;70137;56.482;9.154;2024-03-17T10:20:18;102552.28;;;6.60;65.90
80585;BME280;70137;56.482;9.154;2024-03-17T10:23:04;102555.69;;;6.61;63.85
80585;BME280;70137;56.482;9.154;2024-03-17T10:25:34;102557.78;;;6.54;63.95
80585;BME280;70137;56.482;9.154;2024-03-17T10:28:01;102563.78;;;6.55;65.09
80585;BME280;70137;56.482;9.154;2024-03-17T10:30:27;102568.28;;;6.66;63.35
80585;BME280;70137;56.482;9.154;2024-03-17T10:33:00;102564.81;;;6.52;62.44
80585;BME280;70137;56.482;9.154;2024-03-17T10:35:36;102567.19;;;6.41;63.13
80585;BME280;70137;56.482;9.154;2024-03-17T10:38:07;102566.84;;;6.47;63.35
80585;BME280;70137;56.482;9.154;2024-03-17T10:40:33;102576.41;;;6.59;65.33
80585;BME280;70137;56.482;9.154;2024-03-17T10:43:01;102579.31;;;6.96;62.34
80585;BME280;70137;56.482;9.154;2024-03-17T10:45:28;102580.56;;;7.17;61.43
80585;BME280;70137;56.482;9.154;2024-03-17T10:47:59;102574.56;;;7.17;61.83
80585;BME280;70137;56.482;9.154;2024-03-17T10:50:29;102577.47;;;6.98;60.48
80585;BME280;70137;56.482;9.154;2024-03-17T10:53:00;102580.97;;;6.97;62.41
80585;BME280;70137;56.482;9.154;2024-03-17T10:55:31;102577.78;;;7.21;63.43
80585;BME280;70137;56.482;9.154;2024-03-17T10:57:59;102574.25;;;7.36;61.74
80585;BME280;70137;56.482;9.154;2024-03-17T11:00:26;102572.00;;;7.44;58.86
80585;BME280;70137;56.482;9.154;2024-03-17T11:02:55;102581.94;;;7.50;59.50
80585;BME280;70137;56.482;9.154;2024-03-17T11:05:28;102579.44;;;7.49;59.39
80585;BME280;70137;56.482;9.154;2024-03-17T11:08:00;102570.19;;;7.32;59.30
80585;BME280;70137;56.482;9.154;2024-03-17T11:10:27;102570.78;;;7.23;60.62
80585;BME280;70137;56.482;9.154;2024-03-17T11:12:57;102569.53;;;7.15;59.83
80585;BME280;70137;56.482;9.154;2024-03-17T11:17:51;102555.38;;;7.35;61.95
80585;BME280;70137;56.482;9.154;2024-03-17T11:20:29;102555.19;;;7.51;62.16
80585;BME280;70137;56.482;9.154;2024-03-17T11:22:56;102549.06;;;7.66;60.60
80585;BME280;70137;56.482;9.154;2024-03-17T11:27:51;102555.97;;;7.39;58.94
80585;BME280;70137;56.482;9.154;2024-03-17T11:49:28;102537.31;;;8.00;57.13
80585;BME280;70137;56.482;9.154;2024-03-17T11:51:58;102548.69;;;7.85;58.73
80585;BME280;70137;56.482;9.154;2024-03-17T11:54:29;102544.59;;;7.68;58.52
80585;BME280;70137;56.482;9.154;2024-03-17T11:57:00;102545.97;;;7.74;57.88
80585;BME280;70137;56.482;9.154;2024-03-17T11:59:25;102546.22;;;7.96;57.24
80585;BME280;70137;56.482;9.154;2024-03-17T12:01:51;102535.88;;;7.96;57.80
80585;BME280;70137;56.482;9.154;2024-03-17T12:04:18;102535.97;;;7.95;54.83
80585;BME280;70137;56.482;9.154;2024-03-17T12:06:45;102531.31;;;8.00;55.31
80585;BME280;70137;56.482;9.154;2024-03-17T12:09:19;102524.00;;;7.94;55.40
80585;BME280;70137;56.482;9.154;2024-03-17T12:12:31;102528.34;;;7.93;54.56
80585;BME280;70137;56.482;9.154;2024-03-17T12:14:35;102524.72;;;8.09;56.27
80585;BME280;70137;56.482;9.154;2024-03-17T12:17:06;102525.88;;;8.43;55.90
80585;BME280;70137;56.482;9.154;2024-03-17T12:19:32;102523.63;;;8.75;53.19
80585;BME280;70137;56.482;9.154;2024-03-17T12:21:59;102525.91;;;8.79;53.46
80585;BME280;70137;56.482;9.154;2024-03-17T12:24:29;102521.34;;;8.83;54.05
80585;BME280;70137;56.482;9.154;2024-03-17T12:26:55;102531.56;;;8.84;54.33
80585;BME280;70137;56.482;9.154;2024-03-17T12:29:33;102527.13;;;8.86;53.23
80585;BME280;70137;56.482;9.154;2024-03-17T12:32:05;102521.94;;;8.99;53.08
80585;BME280;70137;56.482;9.154;2024-03-17T12:34:32;102528.50;;;9.03;53.13
80585;BME280;70137;56.482;9.154;2024-03-17T12:36:58;102527.47;;;9.06;52.96
80585;BME280;70137;56.482;9.154;2024-03-17T12:39:35;102525.81;;;9.05;53.31
80585;BME280;70137;56.482;9.154;2024-03-17T12:42:05;102522.03;;;8.98;52.75
80585;BME280;70137;56.482;9.154;2024-03-17T12:44:35;102520.00;;;8.90;52.34
80585;BME280;70137;56.482;9.154;2024-03-17T12:47:03;102516.25;;;9.18;53.78
80585;BME280;70137;56.482;9.154;2024-03-17T12:49:31;102513.09;;;9.26;51.68
80585;BME280;70137;56.482;9.154;2024-03-17T12:51:57;102511.09;;;9.18;54.42
80585;BME280;70137;56.482;9.154;2024-03-17T12:54:25;102513.91;;;9.26;52.27
80585;BME280;70137;56.482;9.154;2024-03-17T12:57:03;102507.22;;;9.24;52.27
80585;BME280;70137;56.482;9.154;2024-03-17T12:59:47;102494.28;;;9.00;51.47
80585;BME280;70137;56.482;9.154;2024-03-17T13:02:31;102503.72;;;8.64;50.77
80585;BME280;70137;56.482;9.154;2024-03-17T13:05:18;102503.13;;;8.22;52.03
80585;BME280;70137;56.482;9.154;2024-03-17T13:07:46;102499.41;;;8.14;53.22
80585;BME280;70137;56.482;9.154;2024-03-17T13:10:15;102502.59;;;8.17;55.20
80585;BME280;70137;56.482;9.154;2024-03-17T13:12:42;102503.44;;;8.43;52.97
80585;BME280;70137;56.482;9.154;2024-03-17T13:15:09;102493.53;;;8.50;53.39
80585;BME280;70137;56.482;9.154;2024-03-17T13:17:36;102494.13;;;8.53;50.52
80585;BME280;70137;56.482;9.154;2024-03-17T13:20:01;102496.81;;;8.39;51.92
80585;BME280;70137;56.482;9.154;2024-03-17T13:22:27;102492.06;;;8.46;51.40
80585;BME280;70137;56.482;9.154;2024-03-17T13:24:53;102483.66;;;8.55;52.17
80585;BME280;70137;56.482;9.154;2024-03-17T13:27:18;102489.97;;;8.64;51.78
80585;BME280;70137;56.482;9.154;2024-03-17T13:29:48;102482.72;;;8.69;51.52